sensor_id;sensor_type;location;lat;lon;timestamp;P1;durP1;ratioP1;P2;durP2;ratioP2
31130;SDS011;20292;50.944;4.034;2022-09-01T00:01:55;3.97;;;2.00;;
31130;SDS011;20292;50.944;4.034;2022-09-01T00:04:21;7.63;;;2.35;;
31130;SDS011;20292;50.944;4.034;2022-09-01T00:06:51;3.25;;;1.95;;
31130;SDS011;20292;50.944;4.034;2022-09-01T00:09:24;4.70;;;2.00;;
31130;SDS011;20292;50.944;4.034;2022-09-01T00:11:51;4.65;;;2.20;;
31130;SDS011;20292;50.944;4.034;2022-09-01T00:14:19;5.38;;;2.22;;
31130;SDS011;20292;50.944;4.034;2022-09-01T00:16:47;7.65;;;2.00;;
31130;SDS011;20292;50.944;4.034;2022-09-01T00:19:13;7.72;;;2.50;;
31130;SDS011;20292;50.944;4.034;2022-09-01T00:21:40;10.07;;;2.28;;
31130;SDS011;20292;50.944;4.034;2022-09-01T00:24:08;5.55;;;2.25;;
31130;SDS011;20292;50.944;4.034;2022-09-01T00:26:33;4.07;;;2.30;;
31130;SDS011;20292;50.944;4.034;2022-09-01T00:28:59;6.25;;;2.08;;
31130;SDS011;20292;50.944;4.034;2022-09-01T00:31:25;4.18;;;2.00;;
31130;SDS011;20292;50.944;4.034;2022-09-01T00:33:51;5.75;;;2.35;;
31130;SDS011;20292;50.944;4.034;2022-09-01T00:36:17;3.22;;;1.98;;
31130;SDS011;20292;50.944;4.034;2022-09-01T00:38:44;5.82;;;1.75;;
31130;SDS011;20292;50.944;4.034;2022-09-01T00:41:09;3.15;;;1.80;;
31130;SDS011;20292;50.944;4.034;2022-09-01T00:46:25;5.35;;;2.10;;
31130;SDS011;20292;50.944;4.034;2022-09-01T00:51:23;6.50;;;2.40;;
31130;SDS011;20292;50.944;4.034;2022-09-01T00:53:50;5.78;;;2.05;;
31130;SDS011;20292;50.944;4.034;2022-09-01T00:56:17;6.30;;;2.05;;
31130;SDS011;20292;50.944;4.034;2022-09-01T00:58:43;5.88;;;1.80;;
31130;SDS011;20292;50.944;4.034;2022-09-01T01:01:09;3.88;;;1.98;;
31130;SDS011;20292;50.944;4.034;2022-09-01T01:03:36;6.05;;;2.20;;
31130;SDS011;20292;50.944;4.034;2022-09-01T01:06:04;3.28;;;1.90;;
31130;SDS011;20292;50.944;4.034;2022-09-01T01:08:33;6.95;;;2.20;;
31130;SDS011;20292;50.944;4.034;2022-09-01T01:11:02;5.18;;;2.33;;
31130;SDS011;20292;50.944;4.034;2022-09-01T01:13:29;5.43;;;1.90;;
31130;SDS011;20292;50.944;4.034;2022-09-01T01:16:00;4.82;;;1.83;;
31130;SDS011;20292;50.944;4.034;2022-09-01T01:18:27;5.88;;;1.98;;
31130;SDS011;20292;50.944;4.034;2022-09-01T01:20:56;3.13;;;1.70;;
31130;SDS011;20292;50.944;4.034;2022-09-01T01:23:55;4.03;;;1.80;;
31130;SDS011;20292;50.944;4.034;2022-09-01T01:26:28;2.75;;;1.65;;
31130;SDS011;20292;50.944;4.034;2022-09-01T01:28:54;3.72;;;1.70;;
31130;SDS011;20292;50.944;4.034;2022-09-01T01:31:20;5.63;;;2.13;;
31130;SDS011;20292;50.944;4.034;2022-09-01T01:33:48;5.10;;;1.80;;
31130;SDS011;20292;50.944;4.034;2022-09-01T01:36:17;5.82;;;1.60;;
31130;SDS011;20292;50.944;4.034;2022-09-01T01:38:56;3.40;;;1.63;;
31130;SDS011;20292;50.944;4.034;2022-09-01T01:41:26;2.83;;;1.73;;
31130;SDS011;20292;50.944;4.034;2022-09-01T01:43:54;4.25;;;1.98;;
31130;SDS011;20292;50.944;4.034;2022-09-01T01:46:23;4.15;;;1.60;;
31130;SDS011;20292;50.944;4.034;2022-09-01T01:48:51;5.82;;;1.70;;
31130;SDS011;20292;50.944;4.034;2022-09-01T01:51:18;3.40;;;1.90;;
31130;SDS011;20292;50.944;4.034;2022-09-01T01:53:45;4.90;;;2.20;;
31130;SDS011;20292;50.944;4.034;2022-09-01T01:56:11;4.00;;;1.67;;
31130;SDS011;20292;50.944;4.034;2022-09-01T01:58:37;5.40;;;1.75;;
31130;SDS011;20292;50.944;4.034;2022-09-01T02:01:04;9.13;;;1.88;;
31130;SDS011;20292;50.944;4.034;2022-09-01T02:03:32;4.25;;;1.83;;
31130;SDS011;20292;50.944;4.034;2022-09-01T02:06:03;6.45;;;1.73;;
31130;SDS011;20292;50.944;4.034;2022-09-01T02:08:32;3.03;;;1.48;;
31130;SDS011;20292;50.944;4.034;2022-09-01T02:11:00;5.22;;;1.60;;
31130;SDS011;20292;50.944;4.034;2022-09-01T02:13:26;3.22;;;1.55;;
31130;SDS011;20292;50.944;4.034;2022-09-01T02:15:55;2.22;;;1.55;;
31130;SDS011;20292;50.944;4.034;2022-09-01T02:18:33;4.25;;;1.60;;
31130;SDS011;20292;50.944;4.034;2022-09-01T02:21:05;3.42;;;1.58;;
31130;SDS011;20292;50.944;4.034;2022-09-01T02:23:34;2.53;;;1.58;;
31130;SDS011;20292;50.944;4.034;2022-09-01T02:25:59;3.75;;;1.50;;
31130;SDS011;20292;50.944;4.034;2022-09-01T02:28:26;2.90;;;1.58;;
31130;SDS011;20292;50.944;4.034;2022-09-01T02:30:55;4.45;;;1.60;;
31130;SDS011;20292;50.944;4.034;2022-09-01T02:33:22;5.45;;;1.40;;
31130;SDS011;20292;50.944;4.034;2022-09-01T02:35:52;3.22;;;1.65;;
31130;SDS011;20292;50.944;4.034;2022-09-01T02:38:19;4.40;;;1.83;;
31130;SDS011;20292;50.944;4.034;2022-09-01T02:40:51;3.00;;;1.52;;
31130;SDS011;20292;50.944;4.034;2022-09-01T02:43:18;3.92;;;1.73;;
31130;SDS011;20292;50.944;4.034;2022-09-01T02:45:46;4.88;;;1.90;;
31130;SDS011;20292;50.944;4.034;2022-09-01T02:48:15;4.35;;;1.80;;
31130;SDS011;20292;50.944;4.034;2022-09-01T02:50:42;4.85;;;1.60;;
31130;SDS011;20292;50.944;4.034;2022-09-01T02:53:08;3.80;;;1.77;;
31130;SDS011;20292;50.944;4.034;2022-09-01T02:55:35;3.55;;;2.10;;
31130;SDS011;20292;50.944;4.034;2022-09-01T02:58:01;4.65;;;1.55;;
31130;SDS011;20292;50.944;4.034;2022-09-01T03:00:27;2.97;;;1.65;;
31130;SDS011;20292;50.944;4.034;2022-09-01T03:02:56;2.55;;;1.77;;
31130;SDS011;20292;50.944;4.034;2022-09-01T03:05:24;8.20;;;1.80;;
31130;SDS011;20292;50.944;4.034;2022-09-01T03:07:53;7.18;;;1.88;;
31130;SDS011;20292;50.944;4.034;2022-09-01T03:10:26;3.25;;;1.77;;
31130;SDS011;20292;50.944;4.034;2022-09-01T03:13:04;3.20;;;1.98;;
31130;SDS011;20292;50.944;4.034;2022-09-01T03:15:32;3.90;;;1.98;;
31130;SDS011;20292;50.944;4.034;2022-09-01T03:18:00;4.45;;;2.00;;
31130;SDS011;20292;50.944;4.034;2022-09-01T03:20:31;4.60;;;2.10;;
31130;SDS011;20292;50.944;4.034;2022-09-01T03:23:00;2.90;;;1.80;;
31130;SDS011;20292;50.944;4.034;2022-09-01T03:25:29;2.55;;;1.60;;
31130;SDS011;20292;50.944;4.034;2022-09-01T03:27:56;3.25;;;2.05;;
31130;SDS011;20292;50.944;4.034;2022-09-01T03:30:24;6.60;;;2.10;;
31130;SDS011;20292;50.944;4.034;2022-09-01T03:32:50;4.40;;;1.67;;
31130;SDS011;20292;50.944;4.034;2022-09-01T03:35:16;6.13;;;2.30;;
31130;SDS011;20292;50.944;4.034;2022-09-01T03:37:42;5.55;;;2.10;;
31130;SDS011;20292;50.944;4.034;2022-09-01T03:40:09;4.72;;;2.05;;
31130;SDS011;20292;50.944;4.034;2022-09-01T03:42:36;3.67;;;2.20;;
31130;SDS011;20292;50.944;4.034;2022-09-01T03:45:02;5.07;;;2.10;;
31130;SDS011;20292;50.944;4.034;2022-09-01T03:47:37;4.15;;;1.85;;
31130;SDS011;20292;50.944;4.034;2022-09-01T03:50:05;6.72;;;2.28;;
31130;SDS011;20292;50.944;4.034;2022-09-01T03:52:36;6.13;;;2.38;;
31130;SDS011;20292;50.944;4.034;2022-09-01T03:55:04;5.88;;;2.30;;
31130;SDS011;20292;50.944;4.034;2022-09-01T03:57:30;7.25;;;2.72;;
31130;SDS011;20292;50.944;4.034;2022-09-01T03:59:55;5.07;;;2.08;;
31130;SDS011;20292;50.944;4.034;2022-09-01T04:02:22;3.60;;;2.03;;
31130;SDS011;20292;50.944;4.034;2022-09-01T04:04:48;6.05;;;2.15;;
31130;SDS011;20292;50.944;4.034;2022-09-01T04:07:14;7.15;;;2.35;;
31130;SDS011;20292;50.944;4.034;2022-09-01T04:09:39;7.70;;;2.30;;
31130;SDS011;20292;50.944;4.034;2022-09-01T04:12:06;3.88;;;2.20;;
31130;SDS011;20292;50.944;4.034;2022-09-01T04:14:33;8.35;;;2.47;;
31130;SDS011;20292;50.944;4.034;2022-09-01T04:16:59;5.38;;;2.53;;
31130;SDS011;20292;50.944;4.034;2022-09-01T04:19:43;4.70;;;2.20;;
31130;SDS011;20292;50.944;4.034;2022-09-01T04:22:09;5.53;;;2.78;;
31130;SDS011;20292;50.944;4.034;2022-09-01T04:24:38;3.95;;;2.22;;
31130;SDS011;20292;50.944;4.034;2022-09-01T04:27:06;6.15;;;2.47;;
31130;SDS011;20292;50.944;4.034;2022-09-01T04:29:33;5.78;;;2.42;;
31130;SDS011;20292;50.944;4.034;2022-09-01T04:32:00;6.22;;;2.42;;
31130;SDS011;20292;50.944;4.034;2022-09-01T04:34:30;8.85;;;2.50;;
31130;SDS011;20292;50.944;4.034;2022-09-01T04:37:06;4.38;;;2.72;;
31130;SDS011;20292;50.944;4.034;2022-09-01T04:39:34;6.97;;;2.35;;
31130;SDS011;20292;50.944;4.034;2022-09-01T04:42:00;7.10;;;2.42;;
31130;SDS011;20292;50.944;4.034;2022-09-01T04:44:29;9.35;;;2.38;;
31130;SDS011;20292;50.944;4.034;2022-09-01T04:46:55;8.30;;;2.63;;
31130;SDS011;20292;50.944;4.034;2022-09-01T04:49:21;6.72;;;2.67;;
31130;SDS011;20292;50.944;4.034;2022-09-01T04:51:48;7.63;;;2.40;;
31130;SDS011;20292;50.944;4.034;2022-09-01T04:54:15;5.70;;;2.67;;
31130;SDS011;20292;50.944;4.034;2022-09-01T04:56:42;6.03;;;2.70;;
31130;SDS011;20292;50.944;4.034;2022-09-01T04:59:10;8.02;;;2.88;;
31130;SDS011;20292;50.944;4.034;2022-09-01T05:01:37;6.13;;;2.78;;
31130;SDS011;20292;50.944;4.034;2022-09-01T05:04:23;4.65;;;2.15;;
31130;SDS011;20292;50.944;4.034;2022-09-01T05:06:59;7.55;;;2.75;;
31130;SDS011;20292;50.944;4.034;2022-09-01T05:09:29;5.40;;;2.53;;
31130;SDS011;20292;50.944;4.034;2022-09-01T05:11:57;7.60;;;3.17;;
31130;SDS011;20292;50.944;4.034;2022-09-01T05:14:32;7.05;;;2.63;;
31130;SDS011;20292;50.944;4.034;2022-09-01T05:16:58;9.55;;;2.90;;
31130;SDS011;20292;50.944;4.034;2022-09-01T05:19:24;6.30;;;2.33;;
31130;SDS011;20292;50.944;4.034;2022-09-01T05:21:52;6.78;;;2.83;;
31130;SDS011;20292;50.944;4.034;2022-09-01T05:24:22;15.77;;;2.80;;
31130;SDS011;20292;50.944;4.034;2022-09-01T05:26:49;6.60;;;3.05;;
31130;SDS011;20292;50.944;4.034;2022-09-01T05:29:15;17.95;;;3.03;;
31130;SDS011;20292;50.944;4.034;2022-09-01T05:31:41;14.48;;;3.33;;
31130;SDS011;20292;50.944;4.034;2022-09-01T05:34:09;18.10;;;3.58;;
31130;SDS011;20292;50.944;4.034;2022-09-01T05:36:36;31.83;;;4.25;;
31130;SDS011;20292;50.944;4.034;2022-09-01T05:39:06;13.20;;;2.78;;
31130;SDS011;20292;50.944;4.034;2022-09-01T05:41:32;8.63;;;2.47;;
31130;SDS011;20292;50.944;4.034;2022-09-01T05:44:00;11.23;;;2.90;;
31130;SDS011;20292;50.944;4.034;2022-09-01T05:46:31;8.30;;;3.47;;
31130;SDS011;20292;50.944;4.034;2022-09-01T05:48:57;30.45;;;4.75;;
31130;SDS011;20292;50.944;4.034;2022-09-01T05:51:24;44.53;;;5.55;;
31130;SDS011;20292;50.944;4.034;2022-09-01T05:53:53;12.40;;;3.63;;
31130;SDS011;20292;50.944;4.034;2022-09-01T05:56:23;9.15;;;2.97;;
31130;SDS011;20292;50.944;4.034;2022-09-01T05:58:53;7.03;;;3.35;;
31130;SDS011;20292;50.944;4.034;2022-09-01T06:01:20;7.82;;;3.22;;
31130;SDS011;20292;50.944;4.034;2022-09-01T06:03:52;7.75;;;3.35;;
31130;SDS011;20292;50.944;4.034;2022-09-01T06:06:26;11.35;;;3.17;;
31130;SDS011;20292;50.944;4.034;2022-09-01T06:08:53;7.47;;;3.08;;
31130;SDS011;20292;50.944;4.034;2022-09-01T06:11:22;9.45;;;3.50;;
31130;SDS011;20292;50.944;4.034;2022-09-01T06:13:49;6.40;;;3.15;;
31130;SDS011;20292;50.944;4.034;2022-09-01T06:16:16;10.15;;;3.97;;
31130;SDS011;20292;50.944;4.034;2022-09-01T06:18:44;9.70;;;3.25;;
31130;SDS011;20292;50.944;4.034;2022-09-01T06:21:10;7.50;;;3.55;;
31130;SDS011;20292;50.944;4.034;2022-09-01T06:23:41;9.07;;;3.50;;
31130;SDS011;20292;50.944;4.034;2022-09-01T06:26:15;10.95;;;3.85;;
31130;SDS011;20292;50.944;4.034;2022-09-01T06:28:44;11.02;;;4.70;;
31130;SDS011;20292;50.944;4.034;2022-09-01T06:31:12;9.82;;;4.90;;
31130;SDS011;20292;50.944;4.034;2022-09-01T06:33:39;10.18;;;4.30;;
31130;SDS011;20292;50.944;4.034;2022-09-01T06:36:06;10.38;;;4.57;;
31130;SDS011;20292;50.944;4.034;2022-09-01T06:38:33;8.02;;;4.32;;
31130;SDS011;20292;50.944;4.034;2022-09-01T06:41:03;13.32;;;5.05;;
31130;SDS011;20292;50.944;4.034;2022-09-01T06:43:36;10.95;;;4.28;;
31130;SDS011;20292;50.944;4.034;2022-09-01T06:46:06;9.48;;;4.60;;
31130;SDS011;20292;50.944;4.034;2022-09-01T06:48:34;9.38;;;4.85;;
31130;SDS011;20292;50.944;4.034;2022-09-01T06:51:01;10.65;;;4.55;;
31130;SDS011;20292;50.944;4.034;2022-09-01T06:53:30;7.97;;;4.55;;
31130;SDS011;20292;50.944;4.034;2022-09-01T06:55:58;13.75;;;5.80;;
31130;SDS011;20292;50.944;4.034;2022-09-01T06:58:24;11.73;;;4.68;;
31130;SDS011;20292;50.944;4.034;2022-09-01T07:00:49;13.18;;;5.32;;
31130;SDS011;20292;50.944;4.034;2022-09-01T07:03:16;12.73;;;6.00;;
31130;SDS011;20292;50.944;4.034;2022-09-01T07:05:43;12.60;;;4.90;;
31130;SDS011;20292;50.944;4.034;2022-09-01T07:08:11;13.10;;;5.70;;
31130;SDS011;20292;50.944;4.034;2022-09-01T07:10:50;9.80;;;5.05;;
31130;SDS011;20292;50.944;4.034;2022-09-01T07:13:19;10.50;;;5.30;;
31130;SDS011;20292;50.944;4.034;2022-09-01T07:15:49;14.82;;;5.97;;
31130;SDS011;20292;50.944;4.034;2022-09-01T07:18:17;13.90;;;5.75;;
31130;SDS011;20292;50.944;4.034;2022-09-01T07:20:49;12.65;;;6.47;;
31130;SDS011;20292;50.944;4.034;2022-09-01T07:23:16;8.18;;;5.45;;
31130;SDS011;20292;50.944;4.034;2022-09-01T07:25:42;14.32;;;5.68;;
31130;SDS011;20292;50.944;4.034;2022-09-01T07:28:10;9.73;;;5.65;;
31130;SDS011;20292;50.944;4.034;2022-09-01T07:30:46;20.45;;;5.97;;
31130;SDS011;20292;50.944;4.034;2022-09-01T07:33:14;11.00;;;5.35;;
31130;SDS011;20292;50.944;4.034;2022-09-01T07:35:41;9.90;;;5.30;;
31130;SDS011;20292;50.944;4.034;2022-09-01T07:38:07;16.92;;;5.85;;
31130;SDS011;20292;50.944;4.034;2022-09-01T07:40:36;11.60;;;6.13;;
31130;SDS011;20292;50.944;4.034;2022-09-01T07:43:04;13.10;;;5.32;;
31130;SDS011;20292;50.944;4.034;2022-09-01T07:45:33;11.20;;;5.55;;
31130;SDS011;20292;50.944;4.034;2022-09-01T07:48:02;13.88;;;5.65;;
31130;SDS011;20292;50.944;4.034;2022-09-01T07:50:31;10.50;;;5.82;;
31130;SDS011;20292;50.944;4.034;2022-09-01T07:52:58;13.52;;;5.85;;
31130;SDS011;20292;50.944;4.034;2022-09-01T07:55:25;13.75;;;5.47;;
31130;SDS011;20292;50.944;4.034;2022-09-01T07:57:52;11.93;;;5.50;;
31130;SDS011;20292;50.944;4.034;2022-09-01T08:00:19;12.77;;;5.32;;
31130;SDS011;20292;50.944;4.034;2022-09-01T08:02:46;10.65;;;5.13;;
31130;SDS011;20292;50.944;4.034;2022-09-01T08:05:13;12.15;;;5.18;;
31130;SDS011;20292;50.944;4.034;2022-09-01T08:07:42;8.60;;;5.45;;
31130;SDS011;20292;50.944;4.034;2022-09-01T08:10:12;11.48;;;5.70;;
31130;SDS011;20292;50.944;4.034;2022-09-01T08:12:38;13.10;;;5.68;;
31130;SDS011;20292;50.944;4.034;2022-09-01T08:15:04;8.98;;;4.97;;
31130;SDS011;20292;50.944;4.034;2022-09-01T08:17:31;10.68;;;5.38;;
31130;SDS011;20292;50.944;4.034;2022-09-01T08:19:57;9.77;;;5.40;;
31130;SDS011;20292;50.944;4.034;2022-09-01T08:22:22;10.20;;;5.40;;
31130;SDS011;20292;50.944;4.034;2022-09-01T08:24:49;9.80;;;4.95;;
31130;SDS011;20292;50.944;4.034;2022-09-01T08:27:16;9.68;;;5.43;;
31130;SDS011;20292;50.944;4.034;2022-09-01T08:29:41;11.38;;;5.07;;
31130;SDS011;20292;50.944;4.034;2022-09-01T08:32:07;9.95;;;4.40;;
31130;SDS011;20292;50.944;4.034;2022-09-01T08:34:34;10.23;;;4.90;;
31130;SDS011;20292;50.944;4.034;2022-09-01T08:37:01;7.80;;;4.55;;
31130;SDS011;20292;50.944;4.034;2022-09-01T08:39:27;7.50;;;4.68;;
31130;SDS011;20292;50.944;4.034;2022-09-01T08:42:03;9.32;;;4.32;;
31130;SDS011;20292;50.944;4.034;2022-09-01T08:44:43;9.10;;;4.57;;
31130;SDS011;20292;50.944;4.034;2022-09-01T08:47:26;8.07;;;4.40;;
31130;SDS011;20292;50.944;4.034;2022-09-01T08:49:53;13.57;;;4.40;;
31130;SDS011;20292;50.944;4.034;2022-09-01T08:52:30;9.82;;;4.82;;
31130;SDS011;20292;50.944;4.034;2022-09-01T08:57:33;9.90;;;4.80;;
31130;SDS011;20292;50.944;4.034;2022-09-01T09:00:05;13.63;;;4.35;;
31130;SDS011;20292;50.944;4.034;2022-09-01T09:05:27;8.68;;;4.13;;
31130;SDS011;20292;50.944;4.034;2022-09-01T09:10:39;6.90;;;3.92;;
31130;SDS011;20292;50.944;4.034;2022-09-01T09:16:08;11.27;;;4.07;;
31130;SDS011;20292;50.944;4.034;2022-09-01T09:18:45;9.95;;;3.95;;
31130;SDS011;20292;50.944;4.034;2022-09-01T09:21:19;6.88;;;3.65;;
31130;SDS011;20292;50.944;4.034;2022-09-01T09:23:55;8.05;;;3.75;;
31130;SDS011;20292;50.944;4.034;2022-09-01T09:26:29;9.27;;;4.22;;
31130;SDS011;20292;50.944;4.034;2022-09-01T09:28:55;7.45;;;3.70;;
31130;SDS011;20292;50.944;4.034;2022-09-01T09:31:34;7.95;;;4.13;;
31130;SDS011;20292;50.944;4.034;2022-09-01T09:34:15;4.40;;;3.50;;
31130;SDS011;20292;50.944;4.034;2022-09-01T09:36:50;12.52;;;3.80;;
31130;SDS011;20292;50.944;4.034;2022-09-01T09:39:16;6.30;;;3.40;;
31130;SDS011;20292;50.944;4.034;2022-09-01T09:41:43;13.27;;;3.67;;
31130;SDS011;20292;50.944;4.034;2022-09-01T09:44:26;7.97;;;3.85;;
31130;SDS011;20292;50.944;4.034;2022-09-01T09:46:55;5.30;;;3.40;;
31130;SDS011;20292;50.944;4.034;2022-09-01T09:51:57;8.00;;;3.60;;
31130;SDS011;20292;50.944;4.034;2022-09-01T09:57:30;9.13;;;3.42;;
31130;SDS011;20292;50.944;4.034;2022-09-01T10:02:36;6.80;;;3.30;;
31130;SDS011;20292;50.944;4.034;2022-09-01T10:08:00;7.63;;;3.15;;
31130;SDS011;20292;50.944;4.034;2022-09-01T10:13:11;3.78;;;2.97;;
31130;SDS011;20292;50.944;4.034;2022-09-01T10:15:39;7.88;;;2.97;;
31130;SDS011;20292;50.944;4.034;2022-09-01T10:18:18;10.98;;;2.83;;
31130;SDS011;20292;50.944;4.034;2022-09-01T10:21:20;17.05;;;3.63;;
31130;SDS011;20292;50.944;4.034;2022-09-01T10:24:20;4.68;;;2.67;;
31130;SDS011;20292;50.944;4.034;2022-09-01T10:26:50;8.30;;;3.05;;
31130;SDS011;20292;50.944;4.034;2022-09-01T10:32:00;7.45;;;2.78;;
31130;SDS011;20292;50.944;4.034;2022-09-01T10:34:32;5.82;;;2.40;;
31130;SDS011;20292;50.944;4.034;2022-09-01T10:37:01;6.97;;;2.20;;
31130;SDS011;20292;50.944;4.034;2022-09-01T10:39:28;4.43;;;2.20;;
31130;SDS011;20292;50.944;4.034;2022-09-01T10:41:54;2.42;;;2.00;;
31130;SDS011;20292;50.944;4.034;2022-09-01T10:44:32;3.42;;;2.05;;
31130;SDS011;20292;50.944;4.034;2022-09-01T10:52:11;7.25;;;2.42;;
31130;SDS011;20292;50.944;4.034;2022-09-01T10:58:24;5.75;;;2.22;;
31130;SDS011;20292;50.944;4.034;2022-09-01T11:00:52;4.53;;;2.50;;
31130;SDS011;20292;50.944;4.034;2022-09-01T11:05:58;3.08;;;2.42;;
31130;SDS011;20292;50.944;4.034;2022-09-01T11:22:12;6.72;;;2.33;;
31130;SDS011;20292;50.944;4.034;2022-09-01T11:27:12;4.80;;;2.22;;
31130;SDS011;20292;50.944;4.034;2022-09-01T11:30:14;4.45;;;2.20;;
31130;SDS011;20292;50.944;4.034;2022-09-01T11:32:41;4.55;;;2.25;;
31130;SDS011;20292;50.944;4.034;2022-09-01T11:35:29;3.88;;;2.30;;
31130;SDS011;20292;50.944;4.034;2022-09-01T11:37:56;4.28;;;2.30;;
31130;SDS011;20292;50.944;4.034;2022-09-01T11:40:31;3.85;;;2.33;;
31130;SDS011;20292;50.944;4.034;2022-09-01T11:43:00;4.70;;;2.33;;
31130;SDS011;20292;50.944;4.034;2022-09-01T11:45:33;4.75;;;2.28;;
31130;SDS011;20292;50.944;4.034;2022-09-01T11:48:08;3.22;;;2.38;;
31130;SDS011;20292;50.944;4.034;2022-09-01T11:50:36;4.70;;;2.20;;
31130;SDS011;20292;50.944;4.034;2022-09-01T11:53:11;6.70;;;2.00;;
31130;SDS011;20292;50.944;4.034;2022-09-01T11:55:43;8.38;;;2.22;;
31130;SDS011;20292;50.944;4.034;2022-09-01T12:00:55;4.43;;;2.42;;
31130;SDS011;20292;50.944;4.034;2022-09-01T12:03:35;5.82;;;2.20;;
31130;SDS011;20292;50.944;4.034;2022-09-01T12:06:01;3.58;;;1.73;;
31130;SDS011;20292;50.944;4.034;2022-09-01T12:08:34;3.60;;;1.90;;
31130;SDS011;20292;50.944;4.034;2022-09-01T12:11:03;4.30;;;1.95;;
31130;SDS011;20292;50.944;4.034;2022-09-01T12:13:34;4.80;;;2.20;;
31130;SDS011;20292;50.944;4.034;2022-09-01T12:16:02;3.35;;;1.70;;
31130;SDS011;20292;50.944;4.034;2022-09-01T12:18:32;6.30;;;1.98;;
31130;SDS011;20292;50.944;4.034;2022-09-01T12:21:00;5.43;;;1.75;;
31130;SDS011;20292;50.944;4.034;2022-09-01T12:23:33;4.85;;;2.10;;
31130;SDS011;20292;50.944;4.034;2022-09-01T12:26:04;2.97;;;2.08;;
31130;SDS011;20292;50.944;4.034;2022-09-01T12:28:32;6.05;;;2.15;;
31130;SDS011;20292;50.944;4.034;2022-09-01T12:31:00;4.13;;;1.90;;
31130;SDS011;20292;50.944;4.034;2022-09-01T12:33:28;3.35;;;2.03;;
31130;SDS011;20292;50.944;4.034;2022-09-01T12:38:56;5.25;;;2.42;;
31130;SDS011;20292;50.944;4.034;2022-09-01T12:41:41;4.47;;;2.35;;
31130;SDS011;20292;50.944;4.034;2022-09-01T12:44:41;5.13;;;2.08;;
31130;SDS011;20292;50.944;4.034;2022-09-01T12:47:02;3.15;;;1.73;;
31130;SDS011;20292;50.944;4.034;2022-09-01T12:49:46;5.03;;;2.17;;
31130;SDS011;20292;50.944;4.034;2022-09-01T12:54:53;6.57;;;1.83;;
31130;SDS011;20292;50.944;4.034;2022-09-01T12:57:29;6.05;;;1.77;;
31130;SDS011;20292;50.944;4.034;2022-09-01T13:02:51;2.83;;;1.80;;
31130;SDS011;20292;50.944;4.034;2022-09-01T13:05:30;4.97;;;2.10;;
31130;SDS011;20292;50.944;4.034;2022-09-01T13:07:58;3.38;;;2.00;;
31130;SDS011;20292;50.944;4.034;2022-09-01T13:10:26;4.80;;;2.03;;
31130;SDS011;20292;50.944;4.034;2022-09-01T13:12:56;3.80;;;2.00;;
31130;SDS011;20292;50.944;4.034;2022-09-01T13:15:22;3.13;;;1.98;;
31130;SDS011;20292;50.944;4.034;2022-09-01T13:17:49;4.90;;;2.20;;
31130;SDS011;20292;50.944;4.034;2022-09-01T13:20:15;3.25;;;2.20;;
31130;SDS011;20292;50.944;4.034;2022-09-01T13:22:42;5.35;;;2.03;;
31130;SDS011;20292;50.944;4.034;2022-09-01T13:25:09;2.35;;;1.92;;
31130;SDS011;20292;50.944;4.034;2022-09-01T13:27:40;5.63;;;2.17;;
31130;SDS011;20292;50.944;4.034;2022-09-01T13:30:09;5.00;;;1.70;;
31130;SDS011;20292;50.944;4.034;2022-09-01T13:32:37;6.25;;;2.10;;
31130;SDS011;20292;50.944;4.034;2022-09-01T13:35:02;5.93;;;1.88;;
31130;SDS011;20292;50.944;4.034;2022-09-01T13:37:28;3.30;;;1.70;;
31130;SDS011;20292;50.944;4.034;2022-09-01T13:39:54;4.15;;;2.10;;
31130;SDS011;20292;50.944;4.034;2022-09-01T13:42:20;4.55;;;1.98;;
31130;SDS011;20292;50.944;4.034;2022-09-01T13:44:46;3.40;;;1.67;;
31130;SDS011;20292;50.944;4.034;2022-09-01T13:47:12;3.80;;;1.73;;
31130;SDS011;20292;50.944;4.034;2022-09-01T13:49:38;6.05;;;1.80;;
31130;SDS011;20292;50.944;4.034;2022-09-01T13:52:04;2.80;;;2.00;;
31130;SDS011;20292;50.944;4.034;2022-09-01T13:54:29;4.30;;;2.10;;
31130;SDS011;20292;50.944;4.034;2022-09-01T13:56:55;2.13;;;2.00;;
31130;SDS011;20292;50.944;4.034;2022-09-01T13:59:21;2.53;;;1.65;;
31130;SDS011;20292;50.944;4.034;2022-09-01T14:01:46;2.63;;;1.73;;
31130;SDS011;20292;50.944;4.034;2022-09-01T14:04:12;5.15;;;2.10;;
31130;SDS011;20292;50.944;4.034;2022-09-01T14:06:39;4.75;;;1.90;;
31130;SDS011;20292;50.944;4.034;2022-09-01T14:09:05;2.75;;;1.98;;
31130;SDS011;20292;50.944;4.034;2022-09-01T14:11:30;3.47;;;2.00;;
31130;SDS011;20292;50.944;4.034;2022-09-01T14:13:56;2.70;;;2.22;;
31130;SDS011;20292;50.944;4.034;2022-09-01T14:16:22;3.15;;;2.05;;
31130;SDS011;20292;50.944;4.034;2022-09-01T14:18:47;4.00;;;2.00;;
31130;SDS011;20292;50.944;4.034;2022-09-01T14:21:14;3.15;;;1.80;;
31130;SDS011;20292;50.944;4.034;2022-09-01T14:23:41;2.90;;;1.88;;
31130;SDS011;20292;50.944;4.034;2022-09-01T14:26:09;1.90;;;1.80;;
31130;SDS011;20292;50.944;4.034;2022-09-01T14:28:36;2.65;;;1.80;;
31130;SDS011;20292;50.944;4.034;2022-09-01T14:31:06;4.22;;;1.90;;
31130;SDS011;20292;50.944;4.034;2022-09-01T14:33:35;7.53;;;2.50;;
31130;SDS011;20292;50.944;4.034;2022-09-01T14:36:02;5.00;;;2.20;;
31130;SDS011;20292;50.944;4.034;2022-09-01T14:38:28;6.45;;;2.20;;
31130;SDS011;20292;50.944;4.034;2022-09-01T14:40:54;3.35;;;1.77;;
31130;SDS011;20292;50.944;4.034;2022-09-01T14:43:23;4.75;;;2.30;;
31130;SDS011;20292;50.944;4.034;2022-09-01T14:46:00;4.25;;;2.00;;
31130;SDS011;20292;50.944;4.034;2022-09-01T14:48:30;4.95;;;1.98;;
31130;SDS011;20292;50.944;4.034;2022-09-01T14:50:56;3.38;;;2.33;;
31130;SDS011;20292;50.944;4.034;2022-09-01T14:53:21;3.05;;;1.95;;
31130;SDS011;20292;50.944;4.034;2022-09-01T14:55:48;2.58;;;1.90;;
31130;SDS011;20292;50.944;4.034;2022-09-01T14:58:13;5.10;;;2.10;;
31130;SDS011;20292;50.944;4.034;2022-09-01T15:00:39;4.15;;;2.10;;
31130;SDS011;20292;50.944;4.034;2022-09-01T15:03:05;3.75;;;1.95;;
31130;SDS011;20292;50.944;4.034;2022-09-01T15:05:31;5.72;;;2.00;;
31130;SDS011;20292;50.944;4.034;2022-09-01T15:07:57;2.42;;;1.98;;
31130;SDS011;20292;50.944;4.034;2022-09-01T15:10:23;2.60;;;2.25;;
31130;SDS011;20292;50.944;4.034;2022-09-01T15:12:49;3.70;;;1.92;;
31130;SDS011;20292;50.944;4.034;2022-09-01T15:15:15;5.13;;;2.13;;
31130;SDS011;20292;50.944;4.034;2022-09-01T15:17:41;5.65;;;1.90;;
31130;SDS011;20292;50.944;4.034;2022-09-01T15:20:07;3.85;;;2.03;;
31130;SDS011;20292;50.944;4.034;2022-09-01T15:22:52;5.50;;;2.30;;
31130;SDS011;20292;50.944;4.034;2022-09-01T15:25:18;6.32;;;1.85;;
31130;SDS011;20292;50.944;4.034;2022-09-01T15:27:44;4.13;;;2.00;;
31130;SDS011;20292;50.944;4.034;2022-09-01T15:30:11;3.60;;;2.13;;
31130;SDS011;20292;50.944;4.034;2022-09-01T15:32:43;6.10;;;1.90;;
31130;SDS011;20292;50.944;4.034;2022-09-01T15:35:09;6.47;;;2.05;;
31130;SDS011;20292;50.944;4.034;2022-09-01T15:37:36;4.57;;;1.80;;
31130;SDS011;20292;50.944;4.034;2022-09-01T15:40:02;5.95;;;2.10;;
31130;SDS011;20292;50.944;4.034;2022-09-01T15:42:28;3.92;;;2.15;;
31130;SDS011;20292;50.944;4.034;2022-09-01T15:44:54;3.70;;;2.20;;
31130;SDS011;20292;50.944;4.034;2022-09-01T15:47:19;3.30;;;2.00;;
31130;SDS011;20292;50.944;4.034;2022-09-01T15:49:45;6.05;;;1.77;;
31130;SDS011;20292;50.944;4.034;2022-09-01T15:52:11;2.10;;;1.70;;
31130;SDS011;20292;50.944;4.034;2022-09-01T15:54:36;3.28;;;1.60;;
31130;SDS011;20292;50.944;4.034;2022-09-01T15:57:03;2.60;;;1.80;;
31130;SDS011;20292;50.944;4.034;2022-09-01T15:59:29;3.10;;;1.85;;
31130;SDS011;20292;50.944;4.034;2022-09-01T16:01:55;9.02;;;1.92;;
31130;SDS011;20292;50.944;4.034;2022-09-01T16:04:21;2.50;;;1.60;;
31130;SDS011;20292;50.944;4.034;2022-09-01T16:06:47;3.60;;;1.80;;
31130;SDS011;20292;50.944;4.034;2022-09-01T16:09:15;4.93;;;1.80;;